createdAt,value
2019-04-03T00:00:15.256Z,2.73
2019-04-03T00:02:43.827Z,2.57
2019-04-03T00:05:12.546Z,2.47
2019-04-03T00:07:41.166Z,2.00
2019-04-03T00:10:10.521Z,2.60
2019-04-03T00:12:41.005Z,2.47
2019-04-03T00:15:13.228Z,2.10
2019-04-03T00:17:40.679Z,2.00
2019-04-03T00:20:09.538Z,2.20
2019-04-03T00:22:38.670Z,2.20
2019-04-03T00:25:08.858Z,2.23
2019-04-03T00:27:37.454Z,2.47
2019-04-03T00:30:07.645Z,2.37
2019-04-03T00:32:36.847Z,1.87
2019-04-03T00:35:09.150Z,2.00
2019-04-03T00:37:38.253Z,2.42
2019-04-03T00:40:07.955Z,2.23
2019-04-03T00:42:36.649Z,2.47
2019-04-03T00:45:07.068Z,2.30
2019-04-03T00:47:35.717Z,2.17
2019-04-03T00:50:05.963Z,2.73
2019-04-03T00:52:34.842Z,2.37
2019-04-03T00:55:04.003Z,2.10
2019-04-03T00:57:33.219Z,2.30
2019-04-03T01:00:01.946Z,2.20
2019-04-03T01:02:30.805Z,2.00
2019-04-03T01:04:59.417Z,1.93
2019-04-03T01:07:29.220Z,2.53
2019-04-03T01:09:59.569Z,2.67
2019-04-03T01:12:30.486Z,2.10
2019-04-03T01:15:01.043Z,2.10
2019-04-03T01:17:29.314Z,2.23
2019-04-03T01:19:58.085Z,2.10
2019-04-03T01:22:26.884Z,2.50
2019-04-03T01:24:55.506Z,2.27
2019-04-03T01:27:24.164Z,2.57
2019-04-03T01:29:52.847Z,2.10
2019-04-03T01:32:21.583Z,2.17
2019-04-03T01:34:50.174Z,2.20
2019-04-03T01:37:19.420Z,2.60
2019-04-03T01:39:49.006Z,2.47
2019-04-03T01:42:21.484Z,1.97
2019-04-03T01:44:48.921Z,2.57
2019-04-03T01:47:17.499Z,2.40
2019-04-03T01:49:46.175Z,3.00
2019-04-03T01:52:14.749Z,2.70
2019-04-03T01:54:43.597Z,2.33
2019-04-03T01:57:12.173Z,2.23
2019-04-03T01:59:40.802Z,2.43
2019-04-03T02:02:09.401Z,2.40
2019-04-03T02:04:38.113Z,3.20
2019-04-03T02:07:06.827Z,2.40
2019-04-03T02:09:35.533Z,2.47
2019-04-03T02:12:04.651Z,2.63
2019-04-03T02:14:33.246Z,2.93
2019-04-03T02:17:01.906Z,3.10
2019-04-03T02:19:30.468Z,2.63
2019-04-03T02:21:59.163Z,2.93
2019-04-03T02:24:27.857Z,3.13
2019-04-03T02:26:56.426Z,2.97
2019-04-03T02:29:25.133Z,3.73
2019-04-03T02:31:53.977Z,4.63
2019-04-03T02:34:22.707Z,4.07
2019-04-03T02:36:51.316Z,4.60
2019-04-03T02:39:19.954Z,4.93
2019-04-03T02:41:48.899Z,4.37
2019-04-03T02:44:19.137Z,5.07
2019-04-03T02:46:48.015Z,3.83
2019-04-03T02:49:16.563Z,4.47
2019-04-03T02:51:46.775Z,4.80
2019-04-03T02:54:30.033Z,4.77
2019-04-03T02:56:59.381Z,4.17
2019-04-03T02:59:28.107Z,4.53
2019-04-03T03:01:56.770Z,4.20
2019-04-03T03:04:26.596Z,4.33
2019-04-03T03:06:55.239Z,4.10
2019-04-03T03:09:23.888Z,4.50
2019-04-03T03:11:56.116Z,3.90
2019-04-03T03:14:24.009Z,3.50
2019-04-03T03:16:53.300Z,3.60
2019-04-03T03:19:24.276Z,4.20
2019-04-03T03:21:56.271Z,4.30
2019-04-03T03:24:28.426Z,3.73
2019-04-03T03:26:56.086Z,4.60
2019-04-03T03:29:27.417Z,4.20
2019-04-03T03:32:07.921Z,3.90
2019-04-03T03:34:49.551Z,3.20
2019-04-03T03:37:02.150Z,3.53
2019-04-03T03:39:29.470Z,3.90
2019-04-03T03:41:59.114Z,4.10
2019-04-03T03:44:28.832Z,3.70
2019-04-03T03:47:01.145Z,3.63
2019-04-03T03:49:30.113Z,3.72
2019-04-03T03:52:03.031Z,4.77
2019-04-03T03:54:31.000Z,4.30
2019-04-03T03:57:03.959Z,4.20
2019-04-03T03:59:31.695Z,4.60
2019-04-03T04:02:03.402Z,4.20
2019-04-03T04:04:31.056Z,4.73
2019-04-03T04:07:02.540Z,5.10
2019-04-03T04:09:30.951Z,4.87
2019-04-03T04:11:59.973Z,5.17
2019-04-03T04:14:29.501Z,4.83
2019-04-03T04:16:58.953Z,5.57
2019-04-03T04:19:30.527Z,4.83
2019-04-03T04:21:59.192Z,4.47
2019-04-03T04:24:28.721Z,4.77
2019-04-03T04:26:57.513Z,3.90
2019-04-03T04:29:26.351Z,3.77
2019-04-03T04:31:54.908Z,3.70
2019-04-03T04:34:25.469Z,4.33
2019-04-03T04:36:55.399Z,4.33
2019-04-03T04:39:24.437Z,4.20
2019-04-03T04:41:53.099Z,4.37
2019-04-03T04:44:21.687Z,4.27
2019-04-03T04:46:50.416Z,3.87
2019-04-03T04:49:19.273Z,3.57
2019-04-03T04:51:48.240Z,3.87
2019-04-03T04:54:16.946Z,3.40
2019-04-03T04:56:45.541Z,5.10
2019-04-03T04:59:14.332Z,3.60
2019-04-03T05:01:43.158Z,3.87
2019-04-03T05:04:14.832Z,4.07
2019-04-03T05:06:42.111Z,3.90
2019-04-03T05:09:11.093Z,3.90
2019-04-03T05:11:39.726Z,3.70
2019-04-03T05:14:09.921Z,4.90
2019-04-03T05:16:39.085Z,4.47
2019-04-03T05:19:10.439Z,5.20
2019-04-03T05:21:38.109Z,4.10
2019-04-03T05:24:12.828Z,4.33
2019-04-03T05:26:37.426Z,3.67
2019-04-03T05:29:06.378Z,4.67
2019-04-03T05:31:35.156Z,3.80
2019-04-03T05:34:03.936Z,4.10
2019-04-03T05:36:32.864Z,4.23
2019-04-03T05:39:03.146Z,3.90
2019-04-03T05:41:32.750Z,3.97
2019-04-03T05:44:02.366Z,3.33
2019-04-03T05:46:31.779Z,4.03
2019-04-03T05:49:03.710Z,4.17
2019-04-03T05:51:32.705Z,4.30
2019-04-03T05:54:01.385Z,4.83
2019-04-03T05:56:30.572Z,4.70
2019-04-03T05:59:02.232Z,3.87
2019-04-03T06:01:29.816Z,4.63
2019-04-03T06:04:00.449Z,3.63
2019-04-03T06:06:29.018Z,4.30
2019-04-03T06:08:57.706Z,7.10
2019-04-03T06:11:26.458Z,3.93
2019-04-03T06:13:55.123Z,3.57
2019-04-03T06:16:24.794Z,3.30
2019-04-03T06:18:53.589Z,5.00
2019-04-03T06:21:22.263Z,3.90
2019-04-03T06:23:52.658Z,5.17
2019-04-03T06:26:21.445Z,3.90
2019-04-03T06:28:50.699Z,3.53
2019-04-03T06:31:19.554Z,4.10
2019-04-03T06:33:50.990Z,5.03
2019-04-03T06:36:18.854Z,3.37
2019-04-03T06:38:48.066Z,5.33
2019-04-03T06:41:16.822Z,3.80
2019-04-03T06:43:47.222Z,3.93
2019-04-03T06:46:16.026Z,4.10
2019-04-03T06:48:45.016Z,3.73
2019-04-03T06:51:15.692Z,5.33
2019-04-03T06:53:43.917Z,3.40
2019-04-03T06:56:12.671Z,5.50
2019-04-03T06:58:43.827Z,4.30
2019-04-03T07:01:11.812Z,4.40
2019-04-03T07:03:40.803Z,3.47
2019-04-03T07:06:09.509Z,4.10
2019-04-03T07:08:40.310Z,3.00
2019-04-03T07:11:08.571Z,3.80
2019-04-03T07:13:37.448Z,5.10
2019-04-03T07:16:06.165Z,3.93
2019-04-03T07:18:37.002Z,3.60
2019-04-03T07:21:05.380Z,4.97
2019-04-03T07:23:34.035Z,3.80
2019-04-03T07:26:04.378Z,3.23
2019-04-03T07:28:33.096Z,4.50
2019-04-03T07:31:04.249Z,5.07
2019-04-03T07:33:32.815Z,4.23
2019-04-03T07:36:01.651Z,4.77
2019-04-03T07:38:30.194Z,4.63
2019-04-03T07:40:58.859Z,5.13
2019-04-03T07:43:27.884Z,4.43
2019-04-03T07:45:57.004Z,4.07
2019-04-03T07:48:25.682Z,4.83
2019-04-03T07:50:55.219Z,4.60
2019-04-03T07:53:24.313Z,3.17
2019-04-03T07:55:54.970Z,3.60
2019-04-03T07:58:25.143Z,3.83
2019-04-03T08:00:53.303Z,2.97
2019-04-03T08:03:22.081Z,3.40
2019-04-03T08:05:51.056Z,3.23
2019-04-03T08:08:20.028Z,3.50
2019-04-03T08:10:49.337Z,3.63
2019-04-03T08:13:18.520Z,3.00
2019-04-03T08:15:47.245Z,4.60
2019-04-03T08:18:16.114Z,2.77
2019-04-03T08:20:45.132Z,3.37
2019-04-03T08:23:14.196Z,4.23
2019-04-03T08:25:46.850Z,3.43
2019-04-03T08:28:13.234Z,2.83
2019-04-03T08:30:42.202Z,3.00
2019-04-03T08:33:17.901Z,3.30
2019-04-03T08:35:41.411Z,3.73
2019-04-03T08:38:12.532Z,4.10
2019-04-03T08:40:40.653Z,3.80
2019-04-03T08:43:09.677Z,3.13
2019-04-03T08:45:39.262Z,4.30
2019-04-03T08:48:08.549Z,3.03
2019-04-03T08:50:37.656Z,3.77
2019-04-03T08:53:08.353Z,3.37
2019-04-03T08:55:36.781Z,3.30
2019-04-03T08:58:05.633Z,3.20
2019-04-03T09:00:34.421Z,3.30
2019-04-03T09:03:04.112Z,3.20
2019-04-03T09:05:33.258Z,3.10
2019-04-03T09:08:02.000Z,3.90
2019-04-03T09:10:32.665Z,3.83
2019-04-03T09:13:01.282Z,3.40
2019-04-03T09:15:30.224Z,2.92
2019-04-03T09:17:59.453Z,2.70
2019-04-03T09:20:28.471Z,3.62
2019-04-03T09:22:57.134Z,3.83
2019-04-03T09:25:25.948Z,3.42
2019-04-03T09:27:55.039Z,3.27
2019-04-03T09:30:24.094Z,3.10
2019-04-03T09:32:54.410Z,2.60
2019-04-03T09:35:23.328Z,3.67
2019-04-03T09:37:52.243Z,2.90
2019-04-03T09:40:21.445Z,3.25
2019-04-03T09:42:51.518Z,3.45
2019-04-03T09:45:20.833Z,3.90
2019-04-03T09:47:50.066Z,3.25
2019-04-03T09:50:22.015Z,3.60
2019-04-03T09:52:50.794Z,3.50
2019-04-03T09:55:19.778Z,3.10
2019-04-03T09:57:48.362Z,3.35
2019-04-03T10:00:18.965Z,3.00
2019-04-03T10:02:48.873Z,3.30
2019-04-03T10:05:18.318Z,2.77
2019-04-03T10:07:47.156Z,3.62
2019-04-03T10:10:17.080Z,2.83
2019-04-03T10:12:48.043Z,3.20
2019-04-03T10:15:18.349Z,3.85
2019-04-03T10:17:47.816Z,2.77
2019-04-03T10:20:18.236Z,3.17
2019-04-03T10:22:47.400Z,3.10
2019-04-03T10:25:17.388Z,3.52
2019-04-03T10:27:46.202Z,2.80
2019-04-03T10:30:15.755Z,2.75
2019-04-03T10:32:44.619Z,2.90
2019-04-03T10:35:14.261Z,2.90
2019-04-03T10:37:45.478Z,2.87
2019-04-03T10:40:14.190Z,2.90
2019-04-03T10:42:42.959Z,3.05
2019-04-03T10:45:12.542Z,3.12
2019-04-03T10:47:43.600Z,3.95
2019-04-03T10:50:12.820Z,3.25
2019-04-03T10:52:44.077Z,3.30
2019-04-03T10:55:12.469Z,3.42
2019-04-03T10:57:41.321Z,3.33
2019-04-03T11:00:12.591Z,3.45
2019-04-03T11:02:41.385Z,3.22
2019-04-03T11:05:11.931Z,3.30
2019-04-03T11:07:41.156Z,2.72
2019-04-03T11:10:13.015Z,3.22
2019-04-03T11:12:41.882Z,2.58
2019-04-03T11:15:12.555Z,4.28
2019-04-03T11:17:42.029Z,3.62
2019-04-03T11:20:11.944Z,2.67
2019-04-03T11:22:43.549Z,2.70
2019-04-03T11:25:15.250Z,3.00
2019-04-03T11:27:45.003Z,4.65
2019-04-03T11:30:18.196Z,2.87
2019-04-03T11:32:45.955Z,7.80
2019-04-03T11:35:15.217Z,2.75
2019-04-03T11:37:43.916Z,2.80
2019-04-03T11:40:17.738Z,4.40
2019-04-03T11:42:44.610Z,2.62
2019-04-03T11:45:14.058Z,3.00
2019-04-03T11:47:43.223Z,2.45
2019-04-03T11:50:16.754Z,2.12
2019-04-03T11:52:45.610Z,3.20
2019-04-03T11:55:14.684Z,2.85
2019-04-03T11:57:43.317Z,3.95
2019-04-03T12:00:15.579Z,3.10
2019-04-03T12:02:44.801Z,3.00
2019-04-03T12:05:20.163Z,2.60
2019-04-03T12:07:47.586Z,3.00
2019-04-03T12:10:17.078Z,2.77
2019-04-03T12:12:45.985Z,2.70
2019-04-03T12:15:16.433Z,2.75
2019-04-03T12:17:45.595Z,2.35
2019-04-03T12:20:16.523Z,2.55
2019-04-03T12:22:45.573Z,2.30
2019-04-03T12:25:15.288Z,3.15
2019-04-03T12:27:46.040Z,3.15
2019-04-03T12:30:16.227Z,4.62
2019-04-03T12:32:48.712Z,2.55
2019-04-03T12:35:16.503Z,4.45
2019-04-03T12:37:49.311Z,2.60
2019-04-03T12:40:15.941Z,3.15
2019-04-03T12:42:44.522Z,3.27
2019-04-03T12:45:13.474Z,2.75
2019-04-03T12:47:44.151Z,2.98
2019-04-03T12:50:14.483Z,2.42
2019-04-03T12:52:44.883Z,3.37
2019-04-03T12:55:15.160Z,2.83
2019-04-03T12:57:44.095Z,3.00
2019-04-03T13:00:15.172Z,3.02
2019-04-03T13:02:43.986Z,2.80
2019-04-03T13:05:15.289Z,2.65
2019-04-03T13:07:45.735Z,2.33
2019-04-03T13:10:15.495Z,2.52
2019-04-03T13:12:44.536Z,2.67
2019-04-03T13:15:13.979Z,2.70
2019-04-03T13:17:44.238Z,2.92
2019-04-03T13:20:14.472Z,2.47
2019-04-03T13:22:43.745Z,2.47
2019-04-03T13:25:15.185Z,3.70
2019-04-03T13:27:44.049Z,3.15
2019-04-03T13:30:14.477Z,2.65
2019-04-03T13:32:43.148Z,3.30
2019-04-03T13:35:14.991Z,2.30
2019-04-03T13:37:42.525Z,1.90
2019-04-03T13:40:11.855Z,7.75
2019-04-03T13:42:40.562Z,2.80
2019-04-03T13:45:10.455Z,3.30
2019-04-03T13:47:41.113Z,2.90
2019-04-03T13:50:11.594Z,3.08
2019-04-03T13:52:43.511Z,3.52
2019-04-03T13:55:11.339Z,4.78
2019-04-03T13:57:39.999Z,3.10
2019-04-03T14:00:19.647Z,2.62
2019-04-03T14:02:41.285Z,3.50
2019-04-03T14:05:10.154Z,2.33
2019-04-03T14:07:41.602Z,2.67
2019-04-03T14:10:09.915Z,2.25
2019-04-03T14:12:43.217Z,3.20
2019-04-03T14:15:09.781Z,3.40
2019-04-03T14:17:38.631Z,2.30
2019-04-03T14:20:12.027Z,2.22
2019-04-03T14:22:40.715Z,2.90
2019-04-03T14:25:19.851Z,2.67
2019-04-03T14:27:39.977Z,3.87
2019-04-03T14:30:11.585Z,3.20
2019-04-03T14:32:39.370Z,2.52
2019-04-03T14:35:33.690Z,2.50
2019-04-03T14:37:38.944Z,3.30
2019-04-03T14:40:11.156Z,1.92
2019-04-03T14:42:38.864Z,2.80
2019-04-03T14:45:08.215Z,3.00
2019-04-03T14:47:36.863Z,2.65
2019-04-03T14:50:07.169Z,2.83
2019-04-03T14:52:36.343Z,3.22
2019-04-03T14:55:18.562Z,2.75
2019-04-03T14:57:38.180Z,4.00
2019-04-03T15:00:23.503Z,3.77
2019-04-03T15:02:41.049Z,4.12
2019-04-03T15:05:10.875Z,3.75
2019-04-03T15:07:40.402Z,3.58
2019-04-03T15:10:09.923Z,5.28
2019-04-03T15:12:39.840Z,3.02
2019-04-03T15:15:09.792Z,3.80
2019-04-03T15:17:39.125Z,3.85
2019-04-03T15:20:12.367Z,7.70
2019-04-03T15:22:41.498Z,3.40
2019-04-03T15:25:10.872Z,3.25
2019-04-03T15:27:39.522Z,3.87
2019-04-03T15:30:10.828Z,3.20
2019-04-03T15:32:40.155Z,3.20
2019-04-03T15:35:09.523Z,2.50
2019-04-03T15:37:41.536Z,2.95
2019-04-03T15:40:09.294Z,2.87
2019-04-03T15:42:40.618Z,2.95
2019-04-03T15:45:10.687Z,2.87
2019-04-03T15:47:45.024Z,3.45
2019-04-03T15:50:11.237Z,3.75
2019-04-03T15:52:39.938Z,4.30
2019-04-03T15:55:10.622Z,3.60
2019-04-03T15:57:40.701Z,2.58
2019-04-03T16:00:12.538Z,2.60
2019-04-03T16:02:44.525Z,2.60
2019-04-03T16:05:13.827Z,3.47
2019-04-03T16:07:42.696Z,3.05
2019-04-03T16:10:12.123Z,2.67
2019-04-03T16:12:42.884Z,3.80
2019-04-03T16:15:11.679Z,4.08
2019-04-03T16:17:40.611Z,2.58
2019-04-03T16:20:10.909Z,3.45
2019-04-03T16:22:40.228Z,3.00
2019-04-03T16:25:09.832Z,3.45
2019-04-03T16:27:38.669Z,3.55
2019-04-03T16:30:09.699Z,5.50
2019-04-03T16:32:39.028Z,3.62
2019-04-03T16:35:08.179Z,2.62
2019-04-03T16:37:37.315Z,3.30
2019-04-03T16:40:09.110Z,2.98
2019-04-03T16:42:39.740Z,3.85
2019-04-03T16:45:10.585Z,3.50
2019-04-03T16:47:40.156Z,3.47
2019-04-03T16:50:10.147Z,4.35
2019-04-03T16:52:38.984Z,4.33
2019-04-03T16:55:09.446Z,4.40
2019-04-03T16:57:38.372Z,4.00
2019-04-03T17:00:11.204Z,14.43
2019-04-03T17:02:41.482Z,5.47
2019-04-03T17:05:11.914Z,5.65
2019-04-03T17:07:41.777Z,5.28
2019-04-03T17:10:11.233Z,5.03
2019-04-03T17:12:39.835Z,4.37
2019-04-03T17:15:11.879Z,4.15
2019-04-03T17:17:41.169Z,4.72
2019-04-03T17:20:10.777Z,3.30
2019-04-03T17:22:40.875Z,3.55
2019-04-03T17:25:10.568Z,4.28
2019-04-03T17:27:39.531Z,2.90
2019-04-03T17:30:10.101Z,4.40
2019-04-03T17:32:40.094Z,2.92
2019-04-03T17:35:09.844Z,3.12
2019-04-03T17:37:40.804Z,3.27
2019-04-03T17:40:10.820Z,2.90
2019-04-03T17:42:40.220Z,3.30
2019-04-03T17:45:09.889Z,2.83
2019-04-03T17:47:38.558Z,3.20
2019-04-03T17:50:08.271Z,3.35
2019-04-03T17:52:37.139Z,3.33
2019-04-03T17:55:12.225Z,3.92
2019-04-03T17:57:40.852Z,3.63
2019-04-03T18:00:20.472Z,3.77
2019-04-03T18:02:49.058Z,3.83
2019-04-03T18:05:18.150Z,3.63
2019-04-03T18:07:46.807Z,4.60
2019-04-03T18:10:15.839Z,4.30
2019-04-03T18:12:45.888Z,4.60
2019-04-03T18:15:16.068Z,5.17
2019-04-03T18:17:44.782Z,5.07
2019-04-03T18:20:14.038Z,4.53
2019-04-03T18:22:42.702Z,4.60
2019-04-03T18:25:11.622Z,4.80
2019-04-03T18:27:40.240Z,4.50
2019-04-03T18:30:12.406Z,4.23
2019-04-03T18:32:41.692Z,4.65
2019-04-03T18:35:11.922Z,4.70
2019-04-03T18:37:41.336Z,5.03
2019-04-03T18:40:14.188Z,5.83
2019-04-03T18:42:41.800Z,4.70
2019-04-03T18:45:24.039Z,5.90
2019-04-03T18:47:45.913Z,5.30
2019-04-03T18:50:14.501Z,5.57
2019-04-03T18:52:43.170Z,4.97
2019-04-03T18:55:14.626Z,4.93
2019-04-03T18:57:43.596Z,4.93
2019-04-03T19:00:12.849Z,5.17
2019-04-03T19:02:41.831Z,5.30
2019-04-03T19:05:13.829Z,4.80
2019-04-03T19:07:41.154Z,5.77
2019-04-03T19:10:11.436Z,5.50
2019-04-03T19:12:43.173Z,6.03
2019-04-03T19:15:11.410Z,5.97
2019-04-03T19:17:40.160Z,5.10
2019-04-03T19:20:11.337Z,6.40
2019-04-03T19:22:39.570Z,5.20
2019-04-03T19:25:08.887Z,5.87
2019-04-03T19:27:37.635Z,5.73
2019-04-03T19:30:08.059Z,6.13
2019-04-03T19:32:36.920Z,7.17
2019-04-03T19:35:09.358Z,6.40
2019-04-03T19:37:38.292Z,6.05
2019-04-03T19:40:09.568Z,6.33
2019-04-03T19:42:38.601Z,6.63
2019-04-03T19:45:08.544Z,7.57
2019-04-03T19:47:37.147Z,7.20
2019-04-03T19:50:09.090Z,7.03
2019-04-03T19:52:41.397Z,6.72
2019-04-03T19:55:09.542Z,7.70
2019-04-03T19:57:38.177Z,7.13
2019-04-03T20:00:08.057Z,6.50
2019-04-03T20:02:38.203Z,7.23
2019-04-03T20:05:07.496Z,7.47
2019-04-03T20:07:36.279Z,7.63
2019-04-03T20:10:12.479Z,7.17
2019-04-03T20:12:41.176Z,7.50
2019-04-03T20:15:11.806Z,7.50
2019-04-03T20:17:40.632Z,7.87
2019-04-03T20:20:10.702Z,7.70
2019-04-03T20:22:42.250Z,8.70
2019-04-03T20:25:10.182Z,7.50
2019-04-03T20:27:38.828Z,7.50
2019-04-03T20:30:08.789Z,6.63
2019-04-03T20:32:39.953Z,8.73
2019-04-03T20:35:08.613Z,7.43
2019-04-03T20:37:37.209Z,7.33
2019-04-03T20:40:06.974Z,7.20
2019-04-03T20:42:35.586Z,7.13
2019-04-03T20:45:08.748Z,6.90
2019-04-03T20:47:37.429Z,6.80
2019-04-03T20:50:07.985Z,6.87
2019-04-03T20:52:36.638Z,6.37
2019-04-03T20:55:07.645Z,6.60
2019-04-03T20:57:36.379Z,6.83
2019-04-03T21:00:11.293Z,7.03
2019-04-03T21:02:41.941Z,6.70
2019-04-03T21:05:10.914Z,6.43
2019-04-03T21:07:39.611Z,6.17
2019-04-03T21:10:08.938Z,6.87
2019-04-03T21:12:37.760Z,5.77
2019-04-03T21:15:08.890Z,6.20
2019-04-03T21:17:37.555Z,6.30
2019-04-03T21:20:07.395Z,5.90
2019-04-03T21:22:35.956Z,6.77
2019-04-03T21:25:06.322Z,6.13
2019-04-03T21:27:34.948Z,6.57
2019-04-03T21:30:05.538Z,6.33
2019-04-03T21:32:34.114Z,6.27
2019-04-03T21:35:03.978Z,6.80
2019-04-03T21:37:33.215Z,6.67
2019-04-03T21:40:04.976Z,6.50
2019-04-03T21:42:33.366Z,6.60
2019-04-03T21:45:02.782Z,6.23
2019-04-03T21:47:32.331Z,6.30
2019-04-03T21:50:03.439Z,6.13
2019-04-03T21:52:31.294Z,6.17
2019-04-03T21:55:00.145Z,6.27
2019-04-03T21:57:28.898Z,6.50
2019-04-03T21:59:57.485Z,6.47
2019-04-03T22:02:26.120Z,6.53
2019-04-03T22:04:54.821Z,5.93
2019-04-03T22:07:23.635Z,5.83
2019-04-03T22:09:52.246Z,6.37
2019-04-03T22:12:20.819Z,6.17
2019-04-03T22:14:49.403Z,6.90
2019-04-03T22:17:17.986Z,6.03
2019-04-03T22:19:46.577Z,7.47
2019-04-03T22:22:15.167Z,5.80
2019-04-03T22:24:43.758Z,6.87
2019-04-03T22:27:12.341Z,6.60
2019-04-03T22:29:40.943Z,6.40
2019-04-03T22:32:10.410Z,5.83
2019-04-03T22:34:39.051Z,6.00
2019-04-03T22:37:07.625Z,6.10
2019-04-03T22:39:37.030Z,6.83
2019-04-03T22:42:06.543Z,6.67
2019-04-03T22:44:35.254Z,6.43
2019-04-03T22:47:03.938Z,6.57
2019-04-03T22:49:33.898Z,5.80
2019-04-03T22:52:02.785Z,5.90
2019-04-03T22:54:31.381Z,6.83
2019-04-03T22:56:59.949Z,6.00
2019-04-03T22:59:28.928Z,6.60
2019-04-03T23:02:00.743Z,5.63
2019-04-03T23:04:27.723Z,6.33
2019-04-03T23:06:56.318Z,6.93
2019-04-03T23:09:25.487Z,7.57
2019-04-03T23:11:54.317Z,6.23
2019-04-03T23:14:22.982Z,7.10
2019-04-03T23:16:51.874Z,6.87
2019-04-03T23:19:20.431Z,6.83
2019-04-03T23:21:49.202Z,6.40
2019-04-03T23:24:17.878Z,6.90
2019-04-03T23:26:46.470Z,6.83
2019-04-03T23:29:15.065Z,7.10
2019-04-03T23:31:44.890Z,6.30
2019-04-03T23:34:14.147Z,6.90
2019-04-03T23:36:42.805Z,7.07
2019-04-03T23:39:11.373Z,6.77
2019-04-03T23:41:40.003Z,7.23
2019-04-03T23:44:10.585Z,7.40
2019-04-03T23:46:39.320Z,7.03
2019-04-03T23:49:08.131Z,7.20
2019-04-03T23:51:36.700Z,7.20
2019-04-03T23:54:05.745Z,7.50
2019-04-03T23:56:34.417Z,8.00
2019-04-03T23:59:03.041Z,8.00
